Time;durP1;ratioP1;P1;durP2;ratioP2;P2;SDS_P1;SDS_P2;PMS_P1;PMS_P2;Temp;Humidity;BMP_temperature;BMP_pressure;BME280_temperature;BME280_humidity;BME280_pressure;Samples;Min_cycle;Max_cycle;Signal;HPM_P1;HPM_P2
2023/04/28 00:01:42;;;;;;;6.28;3.90;;;;;;;9.73;84.32;99044.81;5063312;28;20045;-92
2023/04/28 00:04:07;;;;;;;7.47;4.20;;;;;;;9.74;84.91;99065.19;5060324;28;20036;-92
2023/04/28 00:06:36;;;;;;;9.68;4.30;;;;;;;9.73;85.81;99078.47;5060122;28;20049;-92
2023/04/28 00:09:02;;;;;;;7.25;4.25;;;;;;;9.65;86.71;99076.84;5059708;28;20037;-91
2023/04/28 00:11:28;;;;;;;6.90;4.15;;;;;;;9.57;89.73;99076.09;5059891;28;20052;-93
2023/04/28 00:13:54;;;;;;;7.90;4.10;;;;;;;9.70;88.40;99089.19;5060001;28;20131;-92
2023/04/28 00:16:20;;;;;;;6.47;4.38;;;;;;;9.31;88.96;99046.50;5058951;28;20463;-92
2023/04/28 00:18:46;;;;;;;8.63;3.95;;;;;;;9.40;89.28;99057.81;5058036;28;20080;-91
2023/04/28 00:21:12;;;;;;;7.80;4.30;;;;;;;9.28;89.32;99038.59;5062158;28;20037;-93
2023/04/28 00:23:40;;;;;;;10.73;4.22;;;;;;;9.49;89.09;99067.41;5061755;28;20036;-92
2023/04/28 00:26:05;;;;;;;10.07;4.72;;;;;;;9.40;88.62;99060.47;5060267;28;20040;-92
2023/04/28 00:28:31;;;;;;;9.05;4.82;;;;;;;9.50;88.65;99073.56;5066294;28;20059;-93
2023/04/28 00:30:57;;;;;;;7.30;4.00;;;;;;;9.50;87.82;99057.66;5059124;28;20542;-91
2023/04/28 00:33:23;;;;;;;9.57;4.10;;;;;;;9.40;87.95;99041.03;5065816;28;20135;-93
2023/04/28 00:35:49;;;;;;;6.97;3.90;;;;;;;9.30;88.19;99032.34;5060854;28;20068;-93
2023/04/28 00:38:15;;;;;;;7.07;3.83;;;;;;;9.47;88.91;99071.84;5058301;28;20600;-91
2023/04/28 00:40:42;;;;;;;7.53;3.97;;;;;;;9.41;88.47;99072.88;5063267;28;20052;-93
2023/04/28 00:43:08;;;;;;;6.82;3.58;;;;;;;9.25;89.50;99056.31;5064298;28;20056;-92
2023/04/28 00:45:34;;;;;;;8.18;4.35;;;;;;;9.24;88.98;99056.34;5062942;28;20040;-93
2023/04/28 00:48:01;;;;;;;9.95;4.20;;;;;;;9.08;90.19;99047.75;5062872;28;20060;-92
2023/04/28 00:50:27;;;;;;;7.28;3.90;;;;;;;8.98;91.72;99044.41;5060415;28;20037;-92
2023/04/28 00:52:54;;;;;;;8.35;4.55;;;;;;;8.91;91.77;99031.25;5063448;28;20080;-93
2023/04/28 00:55:22;;;;;;;7.63;3.88;;;;;;;9.13;91.22;99079.50;5059547;28;20501;-93
2023/04/28 00:57:50;;;;;;;6.47;3.70;;;;;;;9.01;90.70;99067.34;5057509;28;20045;-91
2023/04/28 01:00:16;;;;;;;7.33;4.23;;;;;;;9.10;90.51;99083.09;5066484;28;20397;-92
2023/04/28 01:02:42;;;;;;;6.00;3.60;;;;;;;9.10;90.97;99075.13;5061492;28;20047;-91
2023/04/28 01:05:10;;;;;;;7.82;4.30;;;;;;;8.98;92.44;99057.66;5058864;28;20045;-92
2023/04/28 01:07:36;;;;;;;8.32;4.10;;;;;;;8.94;93.97;99052.44;5060728;28;20510;-92
2023/04/28 01:10:02;;;;;;;11.77;3.67;;;;;;;9.04;92.06;99068.19;5066701;28;20041;-92
2023/04/28 01:12:29;;;;;;;8.38;4.13;;;;;;;8.74;93.86;99042.09;5063880;28;20059;-91
2023/04/28 01:14:57;;;;;;;9.18;4.20;;;;;;;8.77;95.99;99048.25;5061738;28;20059;-92
2023/04/28 01:17:23;;;;;;;8.25;4.13;;;;;;;8.83;94.09;99056.13;5054213;28;20045;-92
2023/04/28 01:19:49;;;;;;;11.77;4.40;;;;;;;8.75;93.47;99044.75;5055164;28;20045;-92
2023/04/28 01:22:15;;;;;;;7.70;4.15;;;;;;;8.84;93.71;99062.28;5055154;28;20041;-91
2023/04/28 01:24:42;;;;;;;9.23;4.18;;;;;;;8.86;93.97;99083.50;5055070;28;20390;-93
2023/04/28 01:27:09;;;;;;;14.32;4.63;;;;;;;8.56;94.75;99030.00;5054176;28;20505;-93
2023/04/28 01:29:34;;;;;;;8.38;4.20;;;;;;;8.60;94.94;99055.59;5054497;28;20051;-93
2023/04/28 01:32:00;;;;;;;10.35;4.32;;;;;;;8.82;95.05;99094.13;5053619;28;20108;-91
2023/04/28 01:34:26;;;;;;;10.93;4.60;;;;;;;8.82;94.60;99095.91;5053661;28;20128;-92
2023/04/28 01:36:52;;;;;;;11.52;4.63;;;;;;;8.76;95.10;99094.25;5052624;28;20045;-92
2023/04/28 01:39:18;;;;;;;9.85;4.68;;;;;;;8.48;95.61;99054.00;5054787;28;20045;-92
2023/04/28 01:41:45;;;;;;;9.20;4.50;;;;;;;8.60;96.49;99092.69;5054540;28;20060;-93
2023/04/28 01:44:12;;;;;;;8.35;4.18;;;;;;;8.60;97.25;99093.56;5054960;28;20050;-92
2023/04/28 01:46:37;;;;;;;7.90;4.70;;;;;;;8.55;97.91;99081.28;5054076;28;20043;-91
2023/04/28 01:49:04;;;;;;;7.65;4.40;;;;;;;8.46;98.30;99061.09;5054758;28;20037;-91
2023/04/28 01:51:30;;;;;;;8.77;5.15;;;;;;;8.73;97.75;99099.56;5054630;28;20045;-94
2023/04/28 01:53:56;;;;;;;9.57;4.88;;;;;;;8.63;97.61;99098.84;5053766;28;20094;-92
2023/04/28 01:56:21;;;;;;;8.70;4.53;;;;;;;8.49;97.82;99074.28;5053131;28;20037;-92
2023/04/28 01:58:49;;;;;;;9.70;4.47;;;;;;;8.46;98.68;99078.75;5054316;28;20037;-91
2023/04/28 02:01:15;;;;;;;10.98;5.38;;;;;;;8.46;98.46;99078.75;5052302;28;20060;-92
2023/04/28 02:03:40;;;;;;;13.38;4.40;;;;;;;8.52;98.78;99097.22;5054128;28;20037;-93
2023/04/28 02:06:06;;;;;;;8.82;4.18;;;;;;;8.28;99.31;99061.28;5054668;28;20037;-92
2023/04/28 02:08:32;;;;;;;9.05;4.70;;;;;;;8.20;99.20;99064.06;5055103;28;20033;-93
2023/04/28 02:11:00;;;;;;;8.15;4.65;;;;;;;8.20;98.40;99064.06;5054608;28;20045;-93
2023/04/28 02:13:26;;;;;;;8.15;4.15;;;;;;;8.23;99.51;99082.53;5054173;28;20510;-92
2023/04/28 02:15:53;;;;;;;7.47;4.35;;;;;;;8.17;100.00;99083.50;5059655;28;20079;-92
2023/04/28 02:18:19;;;;;;;10.43;4.53;;;;;;;8.11;100.00;99075.66;5060908;28;20049;-92
2023/04/28 02:20:45;;;;;;;9.68;4.82;;;;;;;8.17;100.00;99085.28;5061032;28;20075;-92
2023/04/28 02:23:11;;;;;;;7.97;4.60;;;;;;;8.18;100.00;99079.09;5064593;28;20064;-92
2023/04/28 02:25:36;;;;;;;8.07;4.30;;;;;;;8.33;100.00;99108.03;5061441;28;20397;-91
2023/04/28 02:28:03;;;;;;;11.82;5.00;;;;;;;8.23;99.84;99087.84;5055367;28;20405;-91
2023/04/28 02:30:28;;;;;;;7.95;4.32;;;;;;;8.10;99.89;99076.53;5058612;28;20043;-92
2023/04/28 02:32:56;;;;;;;9.60;4.30;;;;;;;8.13;100.00;99092.41;5058121;28;20110;-91
2023/04/28 02:35:22;;;;;;;10.43;5.55;;;;;;;8.06;100.00;99077.44;5061015;28;20386;-92
2023/04/28 02:37:47;;;;;;;9.68;4.70;;;;;;;7.93;100.00;99065.25;5060349;28;20048;-91
2023/04/28 02:40:14;;;;;;;10.07;4.90;;;;;;;8.12;100.00;99114.47;5057819;28;20040;-91
2023/04/28 02:42:39;;;;;;;10.75;4.57;;;;;;;7.89;100.00;99076.78;5064256;28;20124;-92
2023/04/28 02:45:07;;;;;;;9.52;4.47;;;;;;;7.98;100.00;99101.41;5058384;28;20064;-92
2023/04/28 02:47:32;;;;;;;8.00;4.10;;;;;;;8.08;100.00;99122.47;5065453;28;20047;-93
2023/04/28 02:50:00;;;;;;;7.93;4.20;;;;;;;7.82;100.00;99078.63;5064599;28;20131;-92
2023/04/28 02:52:26;;;;;;;8.25;4.38;;;;;;;8.00;100.00;99106.66;5062477;28;20052;-91
2023/04/28 02:54:55;;;;;;;8.35;4.07;;;;;;;7.71;100.00;99075.22;5066236;28;20033;-92
2023/04/28 02:57:21;;;;;;;8.20;4.25;;;;;;;7.88;100.00;99106.81;5065067;28;20099;-94
2023/04/28 02:59:47;;;;;;;10.77;4.80;;;;;;;7.66;100.00;99077.03;5065418;28;20044;-92
2023/04/28 03:02:14;;;;;;;8.65;4.22;;;;;;;7.70;100.00;99082.28;5062039;28;20041;-91
2023/04/28 03:04:40;;;;;;;6.78;3.83;;;;;;;7.75;100.00;99096.34;5062450;28;20041;-91
2023/04/28 03:07:08;;;;;;;8.73;4.25;;;;;;;7.90;100.00;99118.25;5062570;28;20040;-91
2023/04/28 03:09:34;;;;;;;8.95;4.38;;;;;;;7.92;100.00;99127.06;5063200;28;20041;-91
2023/04/28 03:12:02;;;;;;;8.75;4.45;;;;;;;7.58;100.00;99083.28;5064179;28;20048;-92
2023/04/28 03:14:28;;;;;;;10.57;4.60;;;;;;;7.61;100.00;99101.78;5067319;28;20545;-92
2023/04/28 03:16:54;;;;;;;6.70;3.85;;;;;;;7.72;100.00;99124.59;5060594;28;20084;-91
2023/04/28 03:19:20;;;;;;;8.98;4.28;;;;;;;7.64;100.00;99114.09;5065701;28;20119;-93
2023/04/28 03:21:46;;;;;;;7.13;3.90;;;;;;;7.75;100.00;99129.88;5062664;28;20451;-92
2023/04/28 03:24:13;;;;;;;7.80;4.22;;;;;;;7.48;100.00;99091.31;5066105;28;20506;-94
2023/04/28 03:26:39;;;;;;;6.85;4.05;;;;;;;7.59;100.00;99115.94;5073086;28;20123;-93
2023/04/28 03:29:05;;;;;;;7.65;4.50;;;;;;;7.49;100.00;99109.81;5065677;28;20110;-92
2023/04/28 03:31:31;;;;;;;7.85;4.47;;;;;;;7.46;100.00;99107.22;5064843;28;20043;-93
2023/04/28 03:33:58;;;;;;;6.88;3.90;;;;;;;7.60;100.00;99138.84;5064332;28;20143;-92
2023/04/28 03:36:24;;;;;;;11.48;3.95;;;;;;;7.57;100.00;99134.47;5063785;28;20064;-93
2023/04/28 03:38:50;;;;;;;7.93;4.18;;;;;;;7.39;100.00;99106.41;5063831;28;20040;-92
2023/04/28 03:41:18;;;;;;;10.70;4.40;;;;;;;7.32;100.00;99094.09;5064937;28;20074;-92
2023/04/28 03:43:44;;;;;;;8.13;4.28;;;;;;;7.51;100.00;99120.41;5064420;28;20067;-92
2023/04/28 03:46:10;;;;;;;7.25;3.80;;;;;;;7.50;100.00;99127.44;5061783;28;20053;-93
2023/04/28 03:48:36;;;;;;;9.13;4.40;;;;;;;7.46;100.00;99120.47;5064850;28;20293;-93
2023/04/28 03:51:02;;;;;;;6.22;3.90;;;;;;;7.33;100.00;99103.81;5068048;28;20482;-92
2023/04/28 03:53:28;;;;;;;9.23;4.30;;;;;;;7.30;100.00;99095.88;5062040;28;20401;-93
2023/04/28 03:55:54;;;;;;;7.93;4.30;;;;;;;7.26;100.00;99098.56;5061548;28;20041;-92
2023/04/28 03:58:22;;;;;;;7.47;3.72;;;;;;;7.45;100.00;99136.34;5060196;28;20055;-93
2023/04/28 04:00:47;;;;;;;7.07;4.07;;;;;;;7.39;100.00;99130.22;5063128;28;20776;-92
2023/04/28 04:03:13;;;;;;;7.28;3.85;;;;;;;7.24;100.00;99100.34;5057457;28;20041;-94
2023/04/28 04:05:40;;;;;;;6.68;3.92;;;;;;;7.26;100.00;99117.09;5066740;28;20036;-93
2023/04/28 04:08:06;;;;;;;6.43;3.55;;;;;;;7.17;100.00;99103.03;5063093;28;20090;-94
2023/04/28 04:10:31;;;;;;;7.10;3.83;;;;;;;7.21;100.00;99111.84;5061885;28;20040;-93
2023/04/28 04:12:57;;;;;;;7.13;3.65;;;;;;;7.15;100.00;99101.28;5064609;28;20501;-92
2023/04/28 04:15:25;;;;;;;7.25;4.07;;;;;;;7.07;100.00;99103.13;5057446;28;20136;-93
2023/04/28 04:17:50;;;;;;;10.35;4.45;;;;;;;7.21;100.00;99133.00;5056375;28;20045;-92
2023/04/28 04:20:16;;;;;;;6.50;4.20;;;;;;;7.09;100.00;99114.56;5056921;28;20449;-93
2023/04/28 04:22:42;;;;;;;5.25;3.88;;;;;;;7.16;100.00;99138.31;5056065;28;20067;-93
2023/04/28 04:25:08;;;;;;;6.05;3.80;;;;;;;7.25;100.00;99152.38;5055842;28;20041;-93
2023/04/28 04:27:35;;;;;;;6.57;3.90;;;;;;;7.30;100.00;99148.78;5056000;28;20049;-93
2023/04/28 04:30:00;;;;;;;8.05;3.83;;;;;;;7.07;100.00;99088.16;5055462;28;20140;-93
2023/04/28 04:32:28;;;;;;;9.60;4.32;;;;;;;7.13;100.00;99095.13;5054513;28;20063;-94
2023/04/28 04:34:54;;;;;;;10.82;4.88;;;;;;;7.29;100.00;99131.16;5055834;28;20423;-95
2023/04/28 04:37:20;;;;;;;8.48;4.65;;;;;;;7.10;100.00;99095.19;5054949;28;20056;-92
2023/04/28 04:39:46;;;;;;;8.23;5.07;;;;;;;7.32;100.00;99146.13;5054552;28;20065;-93
2023/04/28 04:42:12;;;;;;;10.05;5.45;;;;;;;7.04;100.00;99096.09;5054832;28;20041;-93
2023/04/28 04:44:38;;;;;;;13.35;5.85;;;;;;;7.17;100.00;99120.69;5055893;28;20517;-93
2023/04/28 04:47:04;;;;;;;11.40;5.15;;;;;;;7.11;100.00;99113.69;5055534;28;20045;-93
2023/04/28 04:49:31;;;;;;;7.63;5.28;;;;;;;7.24;100.00;99132.09;5056651;28;20037;-93
2023/04/28 04:51:58;;;;;;;7.47;4.35;;;;;;;7.32;100.00;99128.50;5056000;28;20044;-92
2023/04/28 04:54:23;;;;;;;9.75;5.32;;;;;;;7.29;100.00;99122.38;5055432;28;20041;-92
2023/04/28 04:56:50;;;;;;;7.93;4.80;;;;;;;7.42;100.00;99131.94;5056407;28;20041;-94
2023/04/28 04:59:16;;;;;;;9.88;4.88;;;;;;;7.51;100.00;99142.44;5055933;28;20049;-94
2023/04/28 05:01:42;;;;;;;8.98;4.40;;;;;;;7.53;100.00;99140.66;5055246;28;20126;-92
2023/04/28 05:04:08;;;;;;;10.70;4.78;;;;;;;7.60;100.00;99142.34;5056364;28;20073;-93
2023/04/28 05:06:35;;;;;;;9.18;4.95;;;;;;;7.51;100.00;99123.94;5055365;28;20091;-94
2023/04/28 05:09:01;;;;;;;8.25;4.72;;;;;;;7.72;100.00;99148.41;5053310;28;20503;-94
2023/04/28 05:11:27;;;;;;;8.93;5.45;;;;;;;7.64;100.00;99131.75;5053919;28;20051;-93
2023/04/28 05:13:52;;;;;;;8.25;4.90;;;;;;;7.86;100.00;99154.47;5053154;28;20047;-94
2023/04/28 05:16:18;;;;;;;9.55;5.15;;;;;;;7.86;100.00;99143.00;5062448;28;20040;-94
2023/04/28 05:18:44;;;;;;;10.73;4.80;;;;;;;8.06;100.00;99167.50;5056674;28;20047;-94
2023/04/28 05:21:10;;;;;;;7.40;4.35;;;;;;;8.10;100.00;99165.72;5061812;28;20139;-93
2023/04/28 05:23:37;;;;;;;10.10;4.97;;;;;;;8.27;100.00;99142.56;5064962;28;20067;-94
2023/04/28 05:26:05;;;;;;;9.57;4.63;;;;;;;8.70;100.00;99126.16;5057363;28;20045;-93
2023/04/28 05:28:31;;;;;;;9.38;4.65;;;;;;;9.13;98.14;99129.91;5063492;28;20055;-93
2023/04/28 05:30:57;;;;;;;8.25;4.78;;;;;;;9.72;96.76;99165.25;5056687;28;20045;-92
2023/04/28 05:33:22;;;;;;;8.23;4.40;;;;;;;10.01;93.90;99171.81;5066831;28;20132;-93
2023/04/28 05:35:48;;;;;;;7.32;4.18;;;;;;;10.11;90.96;99144.19;5063067;28;20044;-94
2023/04/28 05:38:14;;;;;;;11.57;4.85;;;;;;;10.32;89.88;99132.25;5066943;28;20036;-93
2023/04/28 05:40:42;;;;;;;9.95;4.72;;;;;;;10.74;87.40;99153.56;5061608;28;20043;-94
2023/04/28 05:43:08;;;;;;;9.07;5.22;;;;;;;10.79;85.35;99138.38;5068585;28;20450;-94
2023/04/28 05:45:34;;;;;;;11.55;5.53;;;;;;;10.94;85.27;99137.16;5060452;28;20044;-93
2023/04/28 05:48:00;;;;;;;12.13;5.72;;;;;;;11.19;83.71;99155.19;5071970;28;20155;-95
2023/04/28 05:50:26;;;;;;;9.45;5.10;;;;;;;11.19;83.09;99148.13;5065266;28;20044;-93
2023/04/28 05:52:53;;;;;;;9.55;4.45;;;;;;;11.40;82.26;99167.13;5060043;28;20049;-93
2023/04/28 05:55:19;;;;;;;7.53;4.85;;;;;;;11.62;82.02;99173.69;5063899;28;20370;-94
2023/04/28 05:57:46;;;;;;;11.75;5.40;;;;;;;11.91;80.71;99185.44;5065415;28;20055;-95
2023/04/28 06:00:13;;;;;;;7.70;5.15;;;;;;;12.09;79.01;99187.63;5062939;28;20047;-93
2023/04/28 06:02:39;;;;;;;12.10;5.43;;;;;;;12.03;78.70;99165.59;5072319;28;20045;-95
2023/04/28 06:05:06;;;;;;;9.93;5.22;;;;;;;12.19;78.74;99176.69;5067222;28;20113;-95
2023/04/28 06:07:32;;;;;;;10.23;5.45;;;;;;;12.29;77.32;99191.53;5061683;28;20112;-94
2023/04/28 06:09:58;;;;;;;8.65;4.70;;;;;;;12.39;76.66;99187.72;5064382;28;20469;-93
2023/04/28 06:12:25;;;;;;;6.93;4.80;;;;;;;12.43;75.91;99184.03;5058061;28;20064;-94
2023/04/28 06:14:54;;;;;;;10.00;4.55;;;;;;;12.51;76.10;99175.81;5061022;28;20056;-95
2023/04/28 06:17:19;;;;;;;;;;;;;;;12.68;76.54;99189.53;5074264;28;20063;-93
2023/04/28 06:19:45;;;;;;;10.75;4.88;;;;;;;12.62;75.75;99157.72;5065636;28;19924;-93
2023/04/28 06:22:11;;;;;;;8.68;4.60;;;;;;;12.92;75.14;99176.41;5065957;28;20505;-94
2023/04/28 06:24:37;;;;;;;8.30;4.50;;;;;;;13.00;75.09;99171.72;5063891;28;20565;-95
2023/04/28 06:27:04;;;;;;;7.45;3.90;;;;;;;13.48;72.07;99170.25;5065010;28;20053;-93
2023/04/28 06:29:30;;;;;;;6.82;3.80;;;;;;;13.69;72.72;99200.75;5061078;28;20467;-94
2023/04/28 06:31:58;;;;;;;7.25;3.83;;;;;;;13.81;71.80;99194.97;5061338;28;20068;-93
2023/04/28 06:34:26;;;;;;;7.10;3.78;;;;;;;13.88;71.32;99180.50;5061574;28;20044;-94
2023/04/28 06:36:52;;;;;;;8.93;3.65;;;;;;;14.06;69.87;99187.00;5066125;28;20033;-94
2023/04/28 06:39:18;;;;;;;6.35;3.88;;;;;;;14.20;69.76;99194.53;5068738;28;20068;-93
2023/04/28 06:41:44;;;;;;;6.45;3.72;;;;;;;14.42;69.80;99218.75;5070749;28;20045;-95
2023/04/28 06:44:10;;;;;;;6.50;3.72;;;;;;;14.37;67.82;99210.84;5067283;28;20544;-93
2023/04/28 06:46:36;;;;;;;6.93;3.53;;;;;;;14.53;68.77;99221.91;5062543;28;20094;-94
2023/04/28 06:49:03;;;;;;;7.18;3.90;;;;;;;14.52;69.55;99214.78;5062001;28;20143;-95
2023/04/28 06:51:31;;;;;;;7.63;3.70;;;;;;;14.72;68.62;99213.22;5061547;28;20111;-94
2023/04/28 06:53:57;;;;;;;7.05;3.38;;;;;;;14.91;66.00;99190.19;5067360;28;20045;-94
2023/04/28 06:56:23;;;;;;;6.80;3.40;;;;;;;15.16;65.16;99191.94;5077930;28;20047;-93
2023/04/28 06:58:50;;;;;;;5.47;3.30;;;;;;;15.23;65.71;99185.41;5071125;28;20049;-94
2023/04/28 07:01:16;;;;;;;6.18;3.30;;;;;;;15.57;63.98;99200.13;5072280;28;20048;-95
2023/04/28 07:03:42;;;;;;;5.45;3.28;;;;;;;15.65;63.19;99183.72;5068563;28;20079;-93
2023/04/28 07:06:10;;;;;;;5.07;3.42;;;;;;;15.74;61.17;99186.06;5065532;28;20040;-93
2023/04/28 07:08:36;;;;;;;6.25;3.30;;;;;;;15.88;61.96;99182.81;5066467;28;20047;-95
2023/04/28 07:11:03;;;;;;;7.38;3.33;;;;;;;15.95;61.44;99170.88;5063912;28;20036;-93
2023/04/28 07:13:29;;;;;;;6.30;3.15;;;;;;;16.27;59.93;99184.72;5062143;28;20063;-94
2023/04/28 07:15:55;;;;;;;5.85;3.15;;;;;;;16.47;58.52;99165.06;5059701;28;20469;-95
2023/04/28 07:18:21;;;;;;;4.60;2.97;;;;;;;16.63;55.39;99187.56;5059323;28;20045;-94
2023/04/28 07:20:47;;;;;;;4.13;3.13;;;;;;;16.71;57.13;99197.97;5057253;28;20072;-94
2023/04/28 07:23:14;;;;;;;6.15;2.90;;;;;;;16.67;56.04;99167.69;5058795;28;20044;-94
2023/04/28 07:25:40;;;;;;;5.95;2.80;;;;;;;16.54;53.71;99159.31;5057486;28;20087;-94
2023/04/28 07:28:07;;;;;;;5.22;3.00;;;;;;;16.72;53.77;99162.13;5056281;28;20044;-94
2023/04/28 07:30:33;;;;;;;5.32;2.80;;;;;;;16.89;52.65;99164.06;5056993;28;20052;-94
2023/04/28 07:32:59;;;;;;;4.50;2.78;;;;;;;16.98;50.96;99169.88;5056582;28;20041;-94
2023/04/28 07:35:25;;;;;;;5.55;2.88;;;;;;;17.01;52.31;99161.66;5057223;28;20037;-94
2023/04/28 07:37:53;;;;;;;4.53;2.95;;;;;;;17.07;51.31;99154.25;5061034;28;20044;-95
2023/04/28 07:40:21;;;;;;;6.00;4.10;;;;;;;17.17;51.09;99171.69;5062947;28;20036;-94
2023/04/28 07:42:47;;;;;;;10.55;5.38;;;;;;;17.07;51.57;99151.56;5061462;28;20521;-95
2023/04/28 07:45:14;;;;;;;5.90;3.30;;;;;;;16.61;52.23;99154.53;5061670;28;20071;-94
2023/04/28 07:47:41;;;;;;;5.47;3.15;;;;;;;16.74;52.98;99179.03;5057782;28;20076;-93
2023/04/28 07:50:08;;;;;;;5.32;2.90;;;;;;;16.89;50.89;99164.91;5055587;28;20059;-94
2023/04/28 07:52:34;;;;;;;5.10;3.10;;;;;;;16.54;51.89;99142.34;5055778;28;20049;-94
2023/04/28 07:55:01;;;;;;;5.85;3.28;;;;;;;16.58;52.42;99128.72;5055866;28;20037;-94
2023/04/28 07:57:29;;;;;;;4.72;2.83;;;;;;;16.93;52.26;99131.59;5055661;28;20041;-94
2023/04/28 07:59:55;;;;;;;4.78;2.75;;;;;;;17.43;49.76;99154.31;5054934;28;20037;-94
2023/04/28 08:02:21;;;;;;;5.82;3.10;;;;;;;17.08;49.84;99145.25;5055660;28;20041;-95
2023/04/28 08:04:47;;;;;;;6.55;3.10;;;;;;;17.20;50.21;99125.88;5056525;28;20186;-95
2023/04/28 08:07:13;;;;;;;5.90;2.97;;;;;;;17.54;50.38;99137.66;5055605;28;20407;-94
2023/04/28 08:09:46;;;;;;;6.95;3.00;;;;;;;17.76;49.60;99149.09;5056549;28;20151;-95
2023/04/28 08:12:12;;;;;;;6.03;3.22;;;;;;;17.79;49.01;99138.16;5054954;28;20045;-95
2023/04/28 08:14:39;;;;;;;5.80;3.00;;;;;;;18.04;46.72;99142.31;5055398;28;20045;-94
2023/04/28 08:17:05;;;;;;;6.65;3.20;;;;;;;18.22;46.00;99148.56;5062987;28;20440;-94
2023/04/28 08:19:31;;;;;;;5.78;3.33;;;;;;;18.45;46.60;99155.41;5058478;28;20040;-94
2023/04/28 08:21:58;;;;;;;6.18;3.05;;;;;;;18.20;46.98;99155.88;5071319;28;20048;-93
2023/04/28 08:24:25;;;;;;;5.82;3.08;;;;;;;17.83;46.78;99164.00;5064061;28;20494;-94
2023/04/28 08:26:51;;;;;;;4.90;2.83;;;;;;;17.88;45.61;99157.50;5059679;28;20573;-93
2023/04/28 08:29:16;;;;;;;4.35;2.80;;;;;;;17.78;45.84;99138.22;5058782;28;20044;-94
2023/04/28 08:31:44;;;;;;;4.88;3.20;;;;;;;18.11;45.12;99137.47;5068095;28;20040;-93
2023/04/28 08:34:10;;;;;;;6.00;3.00;;;;;;;18.14;46.99;99135.50;5061635;28;20040;-95
2023/04/28 08:36:36;;;;;;;9.38;3.72;;;;;;;18.12;46.53;99121.25;5049846;28;20457;-95
2023/04/28 08:39:04;;;;;;;5.85;3.05;;;;;;;18.03;44.75;99119.06;5055025;28;20075;-94
2023/04/28 08:41:31;;;;;;;5.75;3.40;;;;;;;18.18;46.69;99142.47;5061956;28;20479;-94
2023/04/28 08:43:57;;;;;;;5.35;2.92;;;;;;;18.44;44.90;99129.47;5063537;28;20040;-95
2023/04/28 08:46:26;;;;;;;6.90;3.17;;;;;;;18.51;45.16;99130.88;5061036;28;20476;-94
2023/04/28 08:49:01;;;;;;;6.45;3.30;;;;;;;18.54;45.53;99119.94;5057349;28;20040;-93
2023/04/28 08:51:33;;;;;;;7.03;3.35;;;;;;;18.59;44.52;99117.84;5063105;28;20484;-92
2023/04/28 08:54:03;;;;;;;5.32;3.05;;;;;;;19.02;43.23;99133.53;5059343;28;20068;-92
2023/04/28 08:56:32;;;;;;;5.57;2.80;;;;;;;19.33;42.09;99146.13;5056571;28;20036;-94
2023/04/28 08:59:01;;;;;;;6.10;3.22;;;;;;;19.48;41.58;99120.97;5070550;28;20055;-94
2023/04/28 09:01:27;;;;;;;;;;;;;;;19.79;41.18;99145.31;5068631;28;20049;-93
2023/04/28 09:03:55;;;;;;;4.65;2.80;;;;;;;19.69;40.42;99123.38;5057805;28;19923;-94
2023/04/28 09:06:21;;;;;;;5.32;3.03;;;;;;;19.19;41.24;99113.69;5070086;28;20478;-94
2023/04/28 09:08:47;;;;;;;5.63;3.03;;;;;;;19.74;40.84;99134.81;5062054;28;20049;-92
2023/04/28 09:11:15;;;;;;;4.15;2.42;;;;;;;19.91;38.77;99120.31;5056772;28;20090;-93
2023/04/28 09:13:41;;;;;;;6.15;2.92;;;;;;;20.00;39.45;99127.00;5063633;28;20044;-92
2023/04/28 09:16:07;;;;;;;4.97;2.42;;;;;;;19.70;36.45;99122.44;5052454;28;20044;-95
2023/04/28 09:18:33;;;;;;;3.88;2.10;;;;;;;19.63;38.63;99132.69;5052940;28;20045;-93
2023/04/28 09:21:05;;;;;;;4.75;2.20;;;;;;;19.78;36.96;99130.06;5053196;28;20136;-94
2023/04/28 09:23:32;;;;;;;3.70;2.10;;;;;;;20.19;37.60;99114.13;5052429;28;20141;-94
2023/04/28 09:26:01;;;;;;;4.85;2.20;;;;;;;20.31;35.93;99134.94;5050244;28;20421;-95
2023/04/28 09:28:27;;;;;;;4.20;2.00;;;;;;;20.68;34.44;99145.34;5052635;28;20045;-95
2023/04/28 09:30:53;;;;;;;5.10;2.20;;;;;;;20.64;34.70;99114.94;5052315;28;20274;-93
2023/04/28 09:33:20;;;;;;;4.45;2.38;;;;;;;20.88;35.45;99108.94;5053020;28;20098;-94
2023/04/28 09:35:47;;;;;;;3.70;2.10;;;;;;;20.97;34.79;99105.69;5047723;28;20077;-93
2023/04/28 09:38:15;;;;;;;3.55;2.08;;;;;;;21.10;34.48;99130.94;5052944;28;20502;-93
2023/04/28 09:40:52;;;;;;;3.58;2.15;;;;;;;21.29;34.73;99135.16;5052979;28;20127;-93
2023/04/28 09:43:26;;;;;;;6.72;2.05;;;;;;;21.25;34.03;99122.78;5052648;28;20490;-94
2023/04/28 09:45:52;;;;;;;4.53;2.08;;;;;;;21.20;33.33;99116.81;5052684;28;20546;-94
2023/04/28 09:48:26;;;;;;;2.28;1.77;;;;;;;21.34;33.79;99116.81;5052558;28;20065;-93
2023/04/28 09:50:53;;;;;;;3.50;2.03;;;;;;;21.23;31.72;99108.50;5054455;28;20372;-94
2023/04/28 09:53:22;;;;;;;4.72;1.90;;;;;;;21.27;32.31;99096.50;5057100;28;20076;-94
2023/04/28 09:55:50;;;;;;;3.42;1.83;;;;;;;21.26;32.29;99111.88;5057067;28;20045;-92
2023/04/28 09:58:18;;;;;;;;;;;;;;;21.26;31.26;99116.44;5057557;28;20059;-95
2023/04/28 10:00:45;;;;;;;2.97;1.85;;;;;;;21.00;30.76;99088.38;5056424;28;19916;-93
2023/04/28 10:03:13;;;;;;;3.35;1.80;;;;;;;21.38;31.07;99093.09;5057069;28;20052;-94
2023/04/28 10:05:39;;;;;;;3.00;1.90;;;;;;;21.56;29.73;99088.31;5057330;28;20103;-95
2023/04/28 10:08:05;;;;;;;5.28;1.85;;;;;;;21.71;29.85;99088.19;5056992;28;20490;-94
2023/04/28 10:10:33;;;;;;;3.42;1.80;;;;;;;21.44;29.17;99073.78;5057713;28;20045;-94
2023/04/28 10:13:00;;;;;;;3.60;1.80;;;;;;;21.47;30.07;99082.56;5057581;28;20103;-94
2023/04/28 10:15:26;;;;;;;2.08;1.65;;;;;;;21.58;29.51;99095.38;5056854;28;20055;-93
2023/04/28 10:17:53;;;;;;;3.70;2.15;;;;;;;21.61;30.16;99083.50;5057460;28;20045;-93
2023/04/28 10:20:21;;;;;;;3.47;1.70;;;;;;;21.90;31.12;99090.50;5057006;28;20045;-93
2023/04/28 10:22:58;;;;;;;4.15;2.00;;;;;;;21.92;30.07;99077.72;5047172;28;20051;-93
2023/04/28 10:25:26;;;;;;;5.60;1.88;;;;;;;21.88;29.91;99069.91;5056489;28;20045;-93
2023/04/28 10:27:54;;;;;;;3.10;1.80;;;;;;;21.99;30.09;99074.56;5056490;28;20045;-94
2023/04/28 10:30:21;;;;;;;5.18;2.20;;;;;;;22.00;30.19;99070.91;5055640;28;20065;-94
2023/04/28 10:33:09;;;;;;;2.55;1.73;;;;;;;22.15;30.47;99072.53;5056012;28;20037;-94
2023/04/28 10:35:43;;;;;;;3.58;1.90;;;;;;;22.12;30.37;99060.09;5056490;28;20044;-94
2023/04/28 10:38:12;;;;;;;4.07;1.85;;;;;;;22.26;30.17;99055.56;5056696;28;20140;-95
2023/04/28 10:40:40;;;;;;;3.97;1.85;;;;;;;22.13;28.62;99052.81;5056882;28;20513;-94
2023/04/28 10:43:08;;;;;;;3.70;1.70;;;;;;;21.96;29.79;99037.75;5056968;28;20131;-94
2023/04/28 10:46:04;;;;;;;4.40;2.13;;;;;;;22.12;30.81;99060.09;5056763;28;20135;-94
2023/04/28 10:49:03;;;;;;;3.30;1.95;;;;;;;22.39;30.89;99061.00;5056587;28;20041;-93
2023/04/28 10:51:30;;;;;;;4.65;1.90;;;;;;;22.28;28.58;99053.63;5054429;28;20037;-94
2023/04/28 10:54:16;;;;;;;4.10;2.10;;;;;;;22.37;30.53;99054.81;5055943;28;20041;-94
2023/04/28 10:57:18;;;;;;;4.60;1.70;;;;;;;22.46;30.10;99052.28;5055079;28;20491;-95
2023/04/28 10:59:46;;;;;;;5.93;2.00;;;;;;;22.37;30.40;99060.22;5054700;28;20136;-94
2023/04/28 11:02:42;;;;;;;2.83;1.80;;;;;;;22.51;30.57;99041.13;5054380;28;20065;-94
2023/04/28 11:05:17;;;;;;;2.42;1.73;;;;;;;22.53;30.25;99028.31;5052995;28;20282;-93
2023/04/28 11:08:27;;;;;;;2.60;1.77;;;;;;;22.64;29.30;99039.28;5056438;28;20045;-95
2023/04/28 11:11:13;;;;;;;2.80;1.80;;;;;;;22.69;30.11;99015.41;5036405;28;20045;-95
2023/04/28 11:13:40;;;;;;;3.33;1.80;;;;;;;22.65;29.22;99032.00;5055976;28;20041;-94
2023/04/28 11:16:08;;;;;;;3.55;1.92;;;;;;;22.49;29.00;99016.84;5055526;28;20053;-94
2023/04/28 11:18:53;;;;;;;5.00;1.85;;;;;;;21.99;29.34;99018.59;5056454;28;20045;-94
2023/04/28 11:21:20;;;;;;;5.70;2.00;;;;;;;22.08;29.72;99011.66;5056447;28;20037;-95
2023/04/28 11:23:46;;;;;;;3.30;1.90;;;;;;;22.15;28.86;99029.22;5056239;28;20094;-96
2023/04/28 11:26:12;;;;;;;3.95;1.90;;;;;;;22.13;29.29;99039.28;5055743;28;20401;-95
2023/04/28 11:28:47;;;;;;;4.72;2.00;;;;;;;22.27;29.39;99047.34;5056538;28;20041;-94
2023/04/28 11:31:18;;;;;;;4.40;1.95;;;;;;;22.33;29.08;99038.75;5055799;28;20522;-95
2023/04/28 11:33:52;;;;;;;3.40;1.83;;;;;;;22.18;28.85;99010.00;5042305;28;20045;-95
2023/04/28 11:36:31;;;;;;;4.85;2.28;;;;;;;22.60;29.17;99023.31;5055229;28;20041;-93